sensor_id;sensor_type;location;lat;lon;timestamp;P1;durP1;ratioP1;P2;durP2;ratioP2
1454;SDS011;721;48.168;12.818;2024-01-30T00:00:53;0.80;;;0.80;;
1454;SDS011;721;48.168;12.818;2024-01-30T00:03:20;1.20;;;1.10;;
1454;SDS011;721;48.168;12.818;2024-01-30T00:05:46;3.23;;;1.23;;
1454;SDS011;721;48.168;12.818;2024-01-30T00:08:15;0.90;;;0.90;;
1454;SDS011;721;48.168;12.818;2024-01-30T00:10:41;1.67;;;1.57;;
1454;SDS011;721;48.168;12.818;2024-01-30T00:13:08;1.73;;;1.10;;
1454;SDS011;721;48.168;12.818;2024-01-30T00:15:35;0.90;;;0.90;;
1454;SDS011;721;48.168;12.818;2024-01-30T00:18:01;0.90;;;0.90;;
1454;SDS011;721;48.168;12.818;2024-01-30T00:20:28;1.47;;;1.13;;
1454;SDS011;721;48.168;12.818;2024-01-30T00:22:55;0.80;;;0.80;;
1454;SDS011;721;48.168;12.818;2024-01-30T00:25:23;0.90;;;0.90;;
1454;SDS011;721;48.168;12.818;2024-01-30T00:27:50;1.20;;;1.20;;
1454;SDS011;721;48.168;12.818;2024-01-30T00:30:17;0.90;;;0.90;;
1454;SDS011;721;48.168;12.818;2024-01-30T00:32:44;0.80;;;0.80;;
1454;SDS011;721;48.168;12.818;2024-01-30T00:35:11;1.33;;;1.33;;
1454;SDS011;721;48.168;12.818;2024-01-30T00:37:38;1.60;;;1.30;;
1454;SDS011;721;48.168;12.818;2024-01-30T00:40:05;1.00;;;1.00;;
1454;SDS011;721;48.168;12.818;2024-01-30T00:42:34;0.80;;;0.80;;
1454;SDS011;721;48.168;12.818;2024-01-30T00:45:01;5.23;;;1.40;;
1454;SDS011;721;48.168;12.818;2024-01-30T00:47:28;1.27;;;1.17;;
1454;SDS011;721;48.168;12.818;2024-01-30T00:49:55;0.97;;;0.97;;
1454;SDS011;721;48.168;12.818;2024-01-30T00:52:21;1.17;;;1.10;;
1454;SDS011;721;48.168;12.818;2024-01-30T00:54:48;0.90;;;0.90;;
1454;SDS011;721;48.168;12.818;2024-01-30T00:57:15;1.77;;;1.63;;
1454;SDS011;721;48.168;12.818;2024-01-30T00:59:43;1.33;;;1.23;;
1454;SDS011;721;48.168;12.818;2024-01-30T01:02:10;1.00;;;1.00;;
1454;SDS011;721;48.168;12.818;2024-01-30T01:04:36;0.97;;;0.97;;
1454;SDS011;721;48.168;12.818;2024-01-30T01:07:03;1.00;;;1.00;;
1454;SDS011;721;48.168;12.818;2024-01-30T01:09:30;2.60;;;2.17;;
1454;SDS011;721;48.168;12.818;2024-01-30T01:11:57;2.00;;;1.90;;
1454;SDS011;721;48.168;12.818;2024-01-30T01:14:24;5.23;;;2.20;;
1454;SDS011;721;48.168;12.818;2024-01-30T01:16:52;1.43;;;1.37;;
1454;SDS011;721;48.168;12.818;2024-01-30T01:19:18;5.23;;;1.43;;
1454;SDS011;721;48.168;12.818;2024-01-30T01:21:45;0.80;;;0.80;;
1454;SDS011;721;48.168;12.818;2024-01-30T01:24:12;1.57;;;1.20;;
1454;SDS011;721;48.168;12.818;2024-01-30T01:26:39;1.00;;;1.00;;
1454;SDS011;721;48.168;12.818;2024-01-30T01:29:06;1.20;;;1.13;;
1454;SDS011;721;48.168;12.818;2024-01-30T01:31:35;2.77;;;1.83;;
1454;SDS011;721;48.168;12.818;2024-01-30T01:34:06;0.80;;;0.80;;
1454;SDS011;721;48.168;12.818;2024-01-30T01:36:33;3.13;;;1.63;;
1454;SDS011;721;48.168;12.818;2024-01-30T01:38:59;1.40;;;1.30;;
1454;SDS011;721;48.168;12.818;2024-01-30T01:41:29;0.90;;;0.90;;
1454;SDS011;721;48.168;12.818;2024-01-30T01:43:56;1.27;;;1.27;;
1454;SDS011;721;48.168;12.818;2024-01-30T01:46:26;1.47;;;1.30;;
1454;SDS011;721;48.168;12.818;2024-01-30T01:48:53;2.50;;;2.40;;
1454;SDS011;721;48.168;12.818;2024-01-30T01:51:22;1.10;;;1.00;;
1454;SDS011;721;48.168;12.818;2024-01-30T01:53:51;1.33;;;1.23;;
1454;SDS011;721;48.168;12.818;2024-01-30T01:56:17;1.20;;;1.10;;
1454;SDS011;721;48.168;12.818;2024-01-30T01:58:45;1.20;;;1.17;;
1454;SDS011;721;48.168;12.818;2024-01-30T02:01:13;0.87;;;0.87;;
1454;SDS011;721;48.168;12.818;2024-01-30T02:03:42;2.80;;;1.30;;
1454;SDS011;721;48.168;12.818;2024-01-30T02:06:09;1.20;;;1.10;;
1454;SDS011;721;48.168;12.818;2024-01-30T02:08:37;1.63;;;1.53;;
1454;SDS011;721;48.168;12.818;2024-01-30T02:11:05;1.10;;;1.10;;
1454;SDS011;721;48.168;12.818;2024-01-30T02:13:32;1.00;;;1.00;;
1454;SDS011;721;48.168;12.818;2024-01-30T02:15:59;1.10;;;1.10;;
1454;SDS011;721;48.168;12.818;2024-01-30T02:18:26;1.40;;;1.30;;
1454;SDS011;721;48.168;12.818;2024-01-30T02:20:53;2.57;;;2.00;;
1454;SDS011;721;48.168;12.818;2024-01-30T02:23:23;1.07;;;1.07;;
1454;SDS011;721;48.168;12.818;2024-01-30T02:25:51;0.90;;;0.90;;
1454;SDS011;721;48.168;12.818;2024-01-30T02:28:18;3.40;;;1.47;;
1454;SDS011;721;48.168;12.818;2024-01-30T02:30:45;1.47;;;1.20;;
1454;SDS011;721;48.168;12.818;2024-01-30T02:33:12;0.83;;;0.83;;
1454;SDS011;721;48.168;12.818;2024-01-30T02:35:39;2.53;;;2.33;;
1454;SDS011;721;48.168;12.818;2024-01-30T02:38:06;4.10;;;1.47;;
1454;SDS011;721;48.168;12.818;2024-01-30T02:40:34;0.90;;;0.90;;
1454;SDS011;721;48.168;12.818;2024-01-30T02:43:01;2.13;;;2.03;;
1454;SDS011;721;48.168;12.818;2024-01-30T02:45:29;0.93;;;0.93;;
1454;SDS011;721;48.168;12.818;2024-01-30T02:47:55;1.43;;;1.33;;
1454;SDS011;721;48.168;12.818;2024-01-30T02:50:22;1.00;;;1.00;;
1454;SDS011;721;48.168;12.818;2024-01-30T02:52:49;2.77;;;1.67;;
1454;SDS011;721;48.168;12.818;2024-01-30T02:55:16;0.90;;;0.90;;
1454;SDS011;721;48.168;12.818;2024-01-30T02:57:45;2.10;;;1.90;;
1454;SDS011;721;48.168;12.818;2024-01-30T03:00:12;0.90;;;0.90;;
1454;SDS011;721;48.168;12.818;2024-01-30T03:02:39;1.63;;;1.53;;
1454;SDS011;721;48.168;12.818;2024-01-30T03:05:06;1.10;;;1.10;;
1454;SDS011;721;48.168;12.818;2024-01-30T03:07:34;0.80;;;0.80;;
1454;SDS011;721;48.168;12.818;2024-01-30T03:10:00;1.73;;;1.57;;
1454;SDS011;721;48.168;12.818;2024-01-30T03:12:27;1.47;;;1.37;;
1454;SDS011;721;48.168;12.818;2024-01-30T03:14:55;10.83;;;1.93;;
1454;SDS011;721;48.168;12.818;2024-01-30T03:17:22;0.90;;;0.90;;
1454;SDS011;721;48.168;12.818;2024-01-30T03:19:49;2.70;;;2.20;;
1454;SDS011;721;48.168;12.818;2024-01-30T03:22:16;0.80;;;0.80;;
1454;SDS011;721;48.168;12.818;2024-01-30T03:24:43;2.63;;;2.13;;
1454;SDS011;721;48.168;12.818;2024-01-30T03:27:10;3.43;;;1.67;;
1454;SDS011;721;48.168;12.818;2024-01-30T03:29:37;1.77;;;1.67;;
1454;SDS011;721;48.168;12.818;2024-01-30T03:32:05;0.90;;;0.90;;
1454;SDS011;721;48.168;12.818;2024-01-30T03:34:32;5.27;;;2.00;;
1454;SDS011;721;48.168;12.818;2024-01-30T03:36:59;0.90;;;0.90;;
1454;SDS011;721;48.168;12.818;2024-01-30T03:39:26;1.40;;;1.40;;
1454;SDS011;721;48.168;12.818;2024-01-30T03:41:52;1.00;;;1.00;;
1454;SDS011;721;48.168;12.818;2024-01-30T03:44:19;3.50;;;1.83;;
1454;SDS011;721;48.168;12.818;2024-01-30T03:46:46;4.60;;;1.27;;
1454;SDS011;721;48.168;12.818;2024-01-30T03:49:14;0.90;;;0.90;;
1454;SDS011;721;48.168;12.818;2024-01-30T03:51:41;4.23;;;2.50;;
1454;SDS011;721;48.168;12.818;2024-01-30T03:54:07;1.67;;;1.57;;
1454;SDS011;721;48.168;12.818;2024-01-30T03:56:34;0.80;;;0.80;;
1454;SDS011;721;48.168;12.818;2024-01-30T03:59:01;0.80;;;0.80;;
1454;SDS011;721;48.168;12.818;2024-01-30T04:01:28;0.90;;;0.90;;
1454;SDS011;721;48.168;12.818;2024-01-30T04:03:55;1.63;;;1.53;;
1454;SDS011;721;48.168;12.818;2024-01-30T04:06:23;1.00;;;1.00;;
1454;SDS011;721;48.168;12.818;2024-01-30T04:08:50;0.80;;;0.80;;
1454;SDS011;721;48.168;12.818;2024-01-30T04:11:18;1.77;;;1.23;;
1454;SDS011;721;48.168;12.818;2024-01-30T04:13:45;0.80;;;0.80;;
1454;SDS011;721;48.168;12.818;2024-01-30T04:16:19;11.83;;;2.30;;
1454;SDS011;721;48.168;12.818;2024-01-30T04:18:46;1.83;;;1.73;;
1454;SDS011;721;48.168;12.818;2024-01-30T04:21:13;1.37;;;1.27;;
1454;SDS011;721;48.168;12.818;2024-01-30T04:23:41;1.83;;;1.10;;
1454;SDS011;721;48.168;12.818;2024-01-30T04:26:08;1.00;;;1.00;;
1454;SDS011;721;48.168;12.818;2024-01-30T04:28:35;1.23;;;1.10;;
1454;SDS011;721;48.168;12.818;2024-01-30T04:31:02;2.13;;;1.27;;
1454;SDS011;721;48.168;12.818;2024-01-30T04:33:29;0.80;;;0.80;;
1454;SDS011;721;48.168;12.818;2024-01-30T04:35:55;1.67;;;1.23;;
1454;SDS011;721;48.168;12.818;2024-01-30T04:38:22;4.93;;;1.53;;
1454;SDS011;721;48.168;12.818;2024-01-30T04:40:50;0.93;;;0.93;;
1454;SDS011;721;48.168;12.818;2024-01-30T04:43:17;1.00;;;1.00;;
1454;SDS011;721;48.168;12.818;2024-01-30T04:45:44;1.33;;;1.23;;
1454;SDS011;721;48.168;12.818;2024-01-30T04:48:11;1.43;;;1.23;;
1454;SDS011;721;48.168;12.818;2024-01-30T04:50:37;1.40;;;1.30;;
1454;SDS011;721;48.168;12.818;2024-01-30T04:53:04;1.10;;;1.10;;
1454;SDS011;721;48.168;12.818;2024-01-30T04:55:31;1.40;;;1.40;;
1454;SDS011;721;48.168;12.818;2024-01-30T04:57:59;1.07;;;1.07;;
1454;SDS011;721;48.168;12.818;2024-01-30T05:00:26;2.13;;;1.60;;
1454;SDS011;721;48.168;12.818;2024-01-30T05:02:53;1.00;;;1.00;;
1454;SDS011;721;48.168;12.818;2024-01-30T05:05:21;1.30;;;1.20;;
1454;SDS011;721;48.168;12.818;2024-01-30T05:07:47;1.50;;;1.40;;
1454;SDS011;721;48.168;12.818;2024-01-30T05:10:14;1.90;;;1.37;;
1454;SDS011;721;48.168;12.818;2024-01-30T05:12:40;1.00;;;1.00;;
1454;SDS011;721;48.168;12.818;2024-01-30T05:15:09;1.00;;;0.97;;
1454;SDS011;721;48.168;12.818;2024-01-30T05:17:35;1.10;;;1.10;;
1454;SDS011;721;48.168;12.818;2024-01-30T05:20:02;1.27;;;1.17;;
1454;SDS011;721;48.168;12.818;2024-01-30T05:22:30;0.90;;;0.90;;
1454;SDS011;721;48.168;12.818;2024-01-30T05:24:57;1.03;;;1.03;;
1454;SDS011;721;48.168;12.818;2024-01-30T05:27:24;2.17;;;1.17;;
1454;SDS011;721;48.168;12.818;2024-01-30T05:29:51;1.27;;;1.27;;
1454;SDS011;721;48.168;12.818;2024-01-30T05:32:19;1.20;;;1.20;;
1454;SDS011;721;48.168;12.818;2024-01-30T05:34:45;1.23;;;1.23;;
1454;SDS011;721;48.168;12.818;2024-01-30T05:37:12;0.80;;;0.80;;
1454;SDS011;721;48.168;12.818;2024-01-30T05:39:41;2.70;;;1.67;;
1454;SDS011;721;48.168;12.818;2024-01-30T05:42:08;1.23;;;1.00;;
1454;SDS011;721;48.168;12.818;2024-01-30T05:44:36;1.03;;;1.03;;
1454;SDS011;721;48.168;12.818;2024-01-30T05:47:02;1.97;;;1.87;;
1454;SDS011;721;48.168;12.818;2024-01-30T05:49:31;1.33;;;1.33;;
1454;SDS011;721;48.168;12.818;2024-01-30T05:51:57;1.65;;;1.55;;
1454;SDS011;721;48.168;12.818;2024-01-30T05:54:24;1.60;;;1.50;;
1454;SDS011;721;48.168;12.818;2024-01-30T05:56:51;1.80;;;1.27;;
1454;SDS011;721;48.168;12.818;2024-01-30T05:59:17;15.40;;;2.83;;
1454;SDS011;721;48.168;12.818;2024-01-30T06:01:47;0.77;;;0.77;;
1454;SDS011;721;48.168;12.818;2024-01-30T06:04:14;0.80;;;0.80;;
1454;SDS011;721;48.168;12.818;2024-01-30T06:06:42;0.80;;;0.80;;
1454;SDS011;721;48.168;12.818;2024-01-30T06:09:09;1.33;;;1.23;;
1454;SDS011;721;48.168;12.818;2024-01-30T06:11:37;1.23;;;1.23;;
1454;SDS011;721;48.168;12.818;2024-01-30T06:14:04;1.97;;;1.80;;
1454;SDS011;721;48.168;12.818;2024-01-30T06:16:31;1.10;;;1.10;;
1454;SDS011;721;48.168;12.818;2024-01-30T06:18:58;2.40;;;1.80;;
1454;SDS011;721;48.168;12.818;2024-01-30T06:21:25;1.00;;;1.00;;
1454;SDS011;721;48.168;12.818;2024-01-30T06:23:53;1.42;;;1.33;;
1454;SDS011;721;48.168;12.818;2024-01-30T06:26:20;1.10;;;1.10;;
1454;SDS011;721;48.168;12.818;2024-01-30T06:28:46;2.17;;;1.93;;
1454;SDS011;721;48.168;12.818;2024-01-30T06:31:13;0.90;;;0.90;;
1454;SDS011;721;48.168;12.818;2024-01-30T06:33:40;1.97;;;1.53;;
1454;SDS011;721;48.168;12.818;2024-01-30T06:36:08;1.17;;;1.17;;
1454;SDS011;721;48.168;12.818;2024-01-30T06:38:34;1.30;;;1.00;;
1454;SDS011;721;48.168;12.818;2024-01-30T06:41:03;0.80;;;0.80;;
1454;SDS011;721;48.168;12.818;2024-01-30T06:43:29;4.70;;;1.73;;
1454;SDS011;721;48.168;12.818;2024-01-30T06:45:56;0.77;;;0.77;;
1454;SDS011;721;48.168;12.818;2024-01-30T06:48:23;1.20;;;1.10;;
1454;SDS011;721;48.168;12.818;2024-01-30T06:50:50;1.20;;;1.13;;
1454;SDS011;721;48.168;12.818;2024-01-30T06:53:19;1.70;;;1.27;;
1454;SDS011;721;48.168;12.818;2024-01-30T06:55:46;1.73;;;1.23;;
1454;SDS011;721;48.168;12.818;2024-01-30T06:58:14;1.30;;;1.20;;
1454;SDS011;721;48.168;12.818;2024-01-30T07:00:40;0.80;;;0.80;;
1454;SDS011;721;48.168;12.818;2024-01-30T07:03:07;1.00;;;1.00;;
1454;SDS011;721;48.168;12.818;2024-01-30T07:05:34;1.17;;;1.17;;
1454;SDS011;721;48.168;12.818;2024-01-30T07:08:01;1.00;;;1.00;;
1454;SDS011;721;48.168;12.818;2024-01-30T07:10:27;0.80;;;0.80;;
1454;SDS011;721;48.168;12.818;2024-01-30T07:12:54;1.00;;;1.00;;
1454;SDS011;721;48.168;12.818;2024-01-30T07:15:22;1.40;;;1.40;;
1454;SDS011;721;48.168;12.818;2024-01-30T07:17:49;1.53;;;1.43;;
1454;SDS011;721;48.168;12.818;2024-01-30T07:20:16;0.93;;;0.93;;
1454;SDS011;721;48.168;12.818;2024-01-30T07:22:45;1.35;;;1.25;;
1454;SDS011;721;48.168;12.818;2024-01-30T07:25:12;1.50;;;1.40;;
1454;SDS011;721;48.168;12.818;2024-01-30T07:27:38;4.40;;;1.57;;
1454;SDS011;721;48.168;12.818;2024-01-30T07:30:06;1.20;;;1.20;;
1454;SDS011;721;48.168;12.818;2024-01-30T07:32:34;0.80;;;0.80;;
1454;SDS011;721;48.168;12.818;2024-01-30T07:35:01;2.10;;;1.53;;
1454;SDS011;721;48.168;12.818;2024-01-30T07:37:28;1.10;;;1.00;;
1454;SDS011;721;48.168;12.818;2024-01-30T07:39:55;1.10;;;1.10;;
1454;SDS011;721;48.168;12.818;2024-01-30T07:42:21;1.90;;;1.37;;
1454;SDS011;721;48.168;12.818;2024-01-30T07:44:48;2.80;;;1.47;;
1454;SDS011;721;48.168;12.818;2024-01-30T07:47:15;0.90;;;0.90;;
1454;SDS011;721;48.168;12.818;2024-01-30T07:49:43;1.20;;;1.10;;
1454;SDS011;721;48.168;12.818;2024-01-30T07:52:09;1.10;;;1.10;;
1454;SDS011;721;48.168;12.818;2024-01-30T07:54:36;1.80;;;1.57;;
1454;SDS011;721;48.168;12.818;2024-01-30T07:57:04;2.27;;;1.50;;
1454;SDS011;721;48.168;12.818;2024-01-30T07:59:31;3.13;;;1.23;;
1454;SDS011;721;48.168;12.818;2024-01-30T08:01:58;0.90;;;0.90;;
1454;SDS011;721;48.168;12.818;2024-01-30T08:04:24;1.80;;;1.70;;
1454;SDS011;721;48.168;12.818;2024-01-30T08:06:52;0.93;;;0.93;;
1454;SDS011;721;48.168;12.818;2024-01-30T08:09:19;1.53;;;1.17;;
1454;SDS011;721;48.168;12.818;2024-01-30T08:11:46;1.43;;;1.33;;
1454;SDS011;721;48.168;12.818;2024-01-30T08:14:13;1.47;;;1.37;;
1454;SDS011;721;48.168;12.818;2024-01-30T08:16:39;2.17;;;2.07;;
1454;SDS011;721;48.168;12.818;2024-01-30T08:19:06;1.07;;;1.07;;
1454;SDS011;721;48.168;12.818;2024-01-30T08:21:33;0.93;;;0.93;;
1454;SDS011;721;48.168;12.818;2024-01-30T08:24:03;1.53;;;1.17;;
1454;SDS011;721;48.168;12.818;2024-01-30T08:26:31;1.33;;;1.23;;
1454;SDS011;721;48.168;12.818;2024-01-30T08:28:57;1.40;;;1.30;;
1454;SDS011;721;48.168;12.818;2024-01-30T08:31:24;1.30;;;1.20;;
1454;SDS011;721;48.168;12.818;2024-01-30T08:33:51;1.63;;;1.53;;
1454;SDS011;721;48.168;12.818;2024-01-30T08:36:18;0.90;;;0.90;;
1454;SDS011;721;48.168;12.818;2024-01-30T08:38:46;1.97;;;1.70;;
1454;SDS011;721;48.168;12.818;2024-01-30T08:41:14;1.33;;;1.27;;
1454;SDS011;721;48.168;12.818;2024-01-30T08:43:40;2.40;;;1.37;;
1454;SDS011;721;48.168;12.818;2024-01-30T08:46:07;1.27;;;1.17;;
1454;SDS011;721;48.168;12.818;2024-01-30T08:48:35;1.20;;;1.10;;
1454;SDS011;721;48.168;12.818;2024-01-30T08:51:02;1.80;;;1.30;;
1454;SDS011;721;48.168;12.818;2024-01-30T08:53:33;0.80;;;0.80;;
1454;SDS011;721;48.168;12.818;2024-01-30T08:56:00;1.63;;;1.50;;
1454;SDS011;721;48.168;12.818;2024-01-30T08:58:28;1.10;;;1.10;;
1454;SDS011;721;48.168;12.818;2024-01-30T09:00:55;1.00;;;1.00;;
1454;SDS011;721;48.168;12.818;2024-01-30T09:03:22;0.90;;;0.90;;
1454;SDS011;721;48.168;12.818;2024-01-30T09:05:49;1.60;;;1.50;;
1454;SDS011;721;48.168;12.818;2024-01-30T09:08:16;1.30;;;1.20;;
1454;SDS011;721;48.168;12.818;2024-01-30T09:10:42;0.90;;;0.90;;
1454;SDS011;721;48.168;12.818;2024-01-30T09:13:10;1.10;;;1.10;;
1454;SDS011;721;48.168;12.818;2024-01-30T09:15:38;4.00;;;1.50;;
1454;SDS011;721;48.168;12.818;2024-01-30T09:18:05;2.03;;;1.93;;
1454;SDS011;721;48.168;12.818;2024-01-30T09:20:32;1.20;;;0.97;;
1454;SDS011;721;48.168;12.818;2024-01-30T09:22:59;0.87;;;0.87;;
1454;SDS011;721;48.168;12.818;2024-01-30T09:25:25;1.07;;;1.07;;
1454;SDS011;721;48.168;12.818;2024-01-30T09:27:52;1.10;;;1.10;;
1454;SDS011;721;48.168;12.818;2024-01-30T09:30:19;1.43;;;1.33;;
1454;SDS011;721;48.168;12.818;2024-01-30T09:32:47;1.87;;;1.77;;
1454;SDS011;721;48.168;12.818;2024-01-30T09:35:14;0.80;;;0.80;;
1454;SDS011;721;48.168;12.818;2024-01-30T09:37:40;1.30;;;1.20;;
1454;SDS011;721;48.168;12.818;2024-01-30T09:40:08;1.73;;;1.60;;
1454;SDS011;721;48.168;12.818;2024-01-30T09:42:35;1.03;;;1.03;;
1454;SDS011;721;48.168;12.818;2024-01-30T09:45:02;1.20;;;1.10;;
1454;SDS011;721;48.168;12.818;2024-01-30T09:47:31;0.97;;;0.97;;
1454;SDS011;721;48.168;12.818;2024-01-30T09:50:00;1.50;;;1.40;;
1454;SDS011;721;48.168;12.818;2024-01-30T09:52:31;0.90;;;0.90;;
1454;SDS011;721;48.168;12.818;2024-01-30T09:54:57;3.13;;;1.23;;
1454;SDS011;721;48.168;12.818;2024-01-30T09:57:26;0.73;;;0.73;;
1454;SDS011;721;48.168;12.818;2024-01-30T09:59:53;0.90;;;0.90;;
1454;SDS011;721;48.168;12.818;2024-01-30T10:02:20;1.53;;;1.43;;
1454;SDS011;721;48.168;12.818;2024-01-30T10:04:47;1.60;;;1.50;;
1454;SDS011;721;48.168;12.818;2024-01-30T10:07:15;1.40;;;1.30;;
1454;SDS011;721;48.168;12.818;2024-01-30T10:09:43;1.37;;;1.30;;
1454;SDS011;721;48.168;12.818;2024-01-30T10:12:09;2.70;;;1.30;;
1454;SDS011;721;48.168;12.818;2024-01-30T10:14:37;0.90;;;0.90;;
1454;SDS011;721;48.168;12.818;2024-01-30T10:17:04;0.97;;;0.97;;
1454;SDS011;721;48.168;12.818;2024-01-30T10:19:32;1.10;;;1.10;;
1454;SDS011;721;48.168;12.818;2024-01-30T10:21:59;1.00;;;1.00;;
1454;SDS011;721;48.168;12.818;2024-01-30T10:24:27;1.77;;;1.23;;
1454;SDS011;721;48.168;12.818;2024-01-30T10:26:55;1.63;;;1.53;;
1454;SDS011;721;48.168;12.818;2024-01-30T10:29:22;1.00;;;1.00;;
1454;SDS011;721;48.168;12.818;2024-01-30T10:31:57;0.80;;;0.80;;
1454;SDS011;721;48.168;12.818;2024-01-30T10:34:24;1.77;;;1.63;;
1454;SDS011;721;48.168;12.818;2024-01-30T10:36:51;1.10;;;1.10;;
1454;SDS011;721;48.168;12.818;2024-01-30T10:39:27;1.20;;;1.10;;
1454;SDS011;721;48.168;12.818;2024-01-30T10:41:59;0.97;;;0.97;;
1454;SDS011;721;48.168;12.818;2024-01-30T10:44:33;0.87;;;0.87;;
1454;SDS011;721;48.168;12.818;2024-01-30T10:47:06;0.97;;;0.97;;
1454;SDS011;721;48.168;12.818;2024-01-30T10:49:37;1.40;;;1.33;;
1454;SDS011;721;48.168;12.818;2024-01-30T10:52:05;0.90;;;0.90;;
1454;SDS011;721;48.168;12.818;2024-01-30T10:54:35;1.00;;;1.00;;
1454;SDS011;721;48.168;12.818;2024-01-30T10:57:03;1.30;;;1.27;;
1454;SDS011;721;48.168;12.818;2024-01-30T10:59:31;1.30;;;1.20;;
1454;SDS011;721;48.168;12.818;2024-01-30T11:01:58;1.20;;;1.10;;
1454;SDS011;721;48.168;12.818;2024-01-30T11:04:26;1.37;;;1.27;;
1454;SDS011;721;48.168;12.818;2024-01-30T11:06:52;1.37;;;1.10;;
1454;SDS011;721;48.168;12.818;2024-01-30T11:09:20;2.00;;;1.90;;
1454;SDS011;721;48.168;12.818;2024-01-30T11:11:52;1.20;;;1.20;;
1454;SDS011;721;48.168;12.818;2024-01-30T11:14:25;1.60;;;1.50;;
1454;SDS011;721;48.168;12.818;2024-01-30T11:16:52;3.10;;;1.30;;
1454;SDS011;721;48.168;12.818;2024-01-30T11:19:22;1.10;;;1.00;;
1454;SDS011;721;48.168;12.818;2024-01-30T11:21:50;1.63;;;1.47;;
1454;SDS011;721;48.168;12.818;2024-01-30T11:24:19;3.70;;;3.07;;
1454;SDS011;721;48.168;12.818;2024-01-30T11:26:46;3.10;;;2.07;;
1454;SDS011;721;48.168;12.818;2024-01-30T11:29:15;2.13;;;1.60;;
1454;SDS011;721;48.168;12.818;2024-01-30T11:31:51;2.27;;;2.07;;
1454;SDS011;721;48.168;12.818;2024-01-30T11:34:18;2.77;;;2.53;;
1454;SDS011;721;48.168;12.818;2024-01-30T11:36:45;1.40;;;1.30;;
1454;SDS011;721;48.168;12.818;2024-01-30T11:39:20;9.63;;;2.30;;
1454;SDS011;721;48.168;12.818;2024-01-30T11:41:47;4.80;;;2.20;;
1454;SDS011;721;48.168;12.818;2024-01-30T11:44:18;1.40;;;1.30;;
1454;SDS011;721;48.168;12.818;2024-01-30T11:46:46;3.17;;;2.07;;
1454;SDS011;721;48.168;12.818;2024-01-30T11:49:13;1.90;;;1.80;;
1454;SDS011;721;48.168;12.818;2024-01-30T11:51:40;2.93;;;2.70;;
1454;SDS011;721;48.168;12.818;2024-01-30T11:54:07;3.73;;;3.03;;
1454;SDS011;721;48.168;12.818;2024-01-30T11:56:34;2.63;;;2.43;;
1454;SDS011;721;48.168;12.818;2024-01-30T11:59:02;28.23;;;3.47;;
1454;SDS011;721;48.168;12.818;2024-01-30T12:01:30;3.27;;;2.50;;
1454;SDS011;721;48.168;12.818;2024-01-30T12:03:58;4.93;;;3.37;;
1454;SDS011;721;48.168;12.818;2024-01-30T12:06:25;4.73;;;3.03;;
1454;SDS011;721;48.168;12.818;2024-01-30T12:08:56;5.73;;;3.27;;
1454;SDS011;721;48.168;12.818;2024-01-30T12:11:23;6.47;;;3.90;;
1454;SDS011;721;48.168;12.818;2024-01-30T12:13:50;4.17;;;3.77;;
1454;SDS011;721;48.168;12.818;2024-01-30T12:16:18;4.87;;;4.40;;
1454;SDS011;721;48.168;12.818;2024-01-30T12:18:47;4.60;;;3.90;;
1454;SDS011;721;48.168;12.818;2024-01-30T12:21:15;10.30;;;3.35;;
1454;SDS011;721;48.168;12.818;2024-01-30T12:23:42;7.97;;;5.70;;
1454;SDS011;721;48.168;12.818;2024-01-30T12:26:09;9.87;;;5.10;;
1454;SDS011;721;48.168;12.818;2024-01-30T12:28:37;8.43;;;4.20;;
1454;SDS011;721;48.168;12.818;2024-01-30T12:31:13;4.10;;;3.70;;
1454;SDS011;721;48.168;12.818;2024-01-30T12:33:39;5.87;;;4.27;;
1454;SDS011;721;48.168;12.818;2024-01-30T12:36:08;7.00;;;4.37;;
1454;SDS011;721;48.168;12.818;2024-01-30T12:38:35;9.13;;;3.70;;
1454;SDS011;721;48.168;12.818;2024-01-30T12:41:02;11.60;;;4.83;;
1454;SDS011;721;48.168;12.818;2024-01-30T12:43:29;8.93;;;5.27;;
1454;SDS011;721;48.168;12.818;2024-01-30T12:45:56;7.37;;;5.30;;
1454;SDS011;721;48.168;12.818;2024-01-30T12:48:23;7.60;;;4.23;;
1454;SDS011;721;48.168;12.818;2024-01-30T12:50:50;6.20;;;4.90;;
1454;SDS011;721;48.168;12.818;2024-01-30T12:53:19;8.73;;;4.17;;
1454;SDS011;721;48.168;12.818;2024-01-30T12:55:46;7.60;;;4.83;;
1454;SDS011;721;48.168;12.818;2024-01-30T12:58:14;10.47;;;5.03;;
1454;SDS011;721;48.168;12.818;2024-01-30T13:00:41;6.23;;;4.47;;
1454;SDS011;721;48.168;12.818;2024-01-30T13:03:09;4.40;;;3.97;;
1454;SDS011;721;48.168;12.818;2024-01-30T13:05:36;6.53;;;4.60;;
1454;SDS011;721;48.168;12.818;2024-01-30T13:08:03;4.73;;;3.97;;
1454;SDS011;721;48.168;12.818;2024-01-30T13:10:32;5.17;;;3.23;;
1454;SDS011;721;48.168;12.818;2024-01-30T13:12:59;14.30;;;6.23;;
1454;SDS011;721;48.168;12.818;2024-01-30T13:15:26;9.90;;;5.80;;
1454;SDS011;721;48.168;12.818;2024-01-30T13:17:52;6.90;;;4.53;;
1454;SDS011;721;48.168;12.818;2024-01-30T13:20:19;5.80;;;5.30;;
1454;SDS011;721;48.168;12.818;2024-01-30T13:22:47;6.53;;;5.30;;
1454;SDS011;721;48.168;12.818;2024-01-30T13:25:14;5.37;;;4.60;;
1454;SDS011;721;48.168;12.818;2024-01-30T13:27:42;5.70;;;5.10;;
1454;SDS011;721;48.168;12.818;2024-01-30T13:30:10;6.50;;;4.77;;
1454;SDS011;721;48.168;12.818;2024-01-30T13:32:37;7.07;;;4.27;;
1454;SDS011;721;48.168;12.818;2024-01-30T13:35:06;11.57;;;6.17;;
1454;SDS011;721;48.168;12.818;2024-01-30T13:37:33;6.20;;;5.00;;
1454;SDS011;721;48.168;12.818;2024-01-30T13:40:00;7.50;;;5.43;;
1454;SDS011;721;48.168;12.818;2024-01-30T13:42:27;5.97;;;5.37;;
1454;SDS011;721;48.168;12.818;2024-01-30T13:44:55;8.50;;;6.50;;
1454;SDS011;721;48.168;12.818;2024-01-30T13:47:22;8.10;;;5.30;;
1454;SDS011;721;48.168;12.818;2024-01-30T13:49:49;7.30;;;6.60;;
1454;SDS011;721;48.168;12.818;2024-01-30T13:52:17;6.97;;;5.30;;
1454;SDS011;721;48.168;12.818;2024-01-30T13:54:44;5.97;;;5.37;;
1454;SDS011;721;48.168;12.818;2024-01-30T13:57:11;12.77;;;6.60;;
1454;SDS011;721;48.168;12.818;2024-01-30T13:59:38;7.10;;;5.27;;
1454;SDS011;721;48.168;12.818;2024-01-30T14:02:06;8.50;;;5.90;;
1454;SDS011;721;48.168;12.818;2024-01-30T14:04:35;7.67;;;4.47;;
1454;SDS011;721;48.168;12.818;2024-01-30T14:07:02;10.43;;;6.27;;
1454;SDS011;721;48.168;12.818;2024-01-30T14:09:29;5.97;;;4.97;;
1454;SDS011;721;48.168;12.818;2024-01-30T14:11:57;8.33;;;4.77;;
1454;SDS011;721;48.168;12.818;2024-01-30T14:14:24;9.10;;;6.60;;
1454;SDS011;721;48.168;12.818;2024-01-30T14:16:51;5.17;;;4.67;;
1454;SDS011;721;48.168;12.818;2024-01-30T14:19:19;5.57;;;4.90;;
1454;SDS011;721;48.168;12.818;2024-01-30T14:21:46;6.83;;;4.60;;
1454;SDS011;721;48.168;12.818;2024-01-30T14:24:12;4.90;;;4.50;;
1454;SDS011;721;48.168;12.818;2024-01-30T14:26:39;5.67;;;4.67;;
1454;SDS011;721;48.168;12.818;2024-01-30T14:29:06;5.10;;;4.33;;
1454;SDS011;721;48.168;12.818;2024-01-30T14:31:33;6.30;;;4.70;;
1454;SDS011;721;48.168;12.818;2024-01-30T14:34:00;5.73;;;5.13;;
1454;SDS011;721;48.168;12.818;2024-01-30T14:36:28;6.83;;;5.33;;
1454;SDS011;721;48.168;12.818;2024-01-30T14:38:54;7.27;;;4.40;;
1454;SDS011;721;48.168;12.818;2024-01-30T14:41:21;6.33;;;4.30;;
1454;SDS011;721;48.168;12.818;2024-01-30T14:43:48;20.33;;;5.60;;
1454;SDS011;721;48.168;12.818;2024-01-30T14:46:15;10.23;;;5.93;;
1454;SDS011;721;48.168;12.818;2024-01-30T14:48:42;12.17;;;4.60;;
1454;SDS011;721;48.168;12.818;2024-01-30T14:51:09;6.87;;;4.70;;
1454;SDS011;721;48.168;12.818;2024-01-30T14:53:37;9.80;;;4.93;;
1454;SDS011;721;48.168;12.818;2024-01-30T14:56:04;5.03;;;4.60;;
1454;SDS011;721;48.168;12.818;2024-01-30T14:58:31;5.00;;;4.43;;
1454;SDS011;721;48.168;12.818;2024-01-30T15:00:58;6.47;;;4.17;;
1454;SDS011;721;48.168;12.818;2024-01-30T15:03:26;14.33;;;5.00;;
1454;SDS011;721;48.168;12.818;2024-01-30T15:05:53;5.70;;;4.40;;
1454;SDS011;721;48.168;12.818;2024-01-30T15:08:20;4.87;;;4.40;;
1454;SDS011;721;48.168;12.818;2024-01-30T15:10:49;5.27;;;4.60;;
1454;SDS011;721;48.168;12.818;2024-01-30T15:13:16;5.07;;;4.57;;
1454;SDS011;721;48.168;12.818;2024-01-30T15:15:43;6.87;;;4.20;;